Pagrindinis puslapis
METAR-TAF:

METAR-TAF

Oro uostai :

Rantoul National Aviation Center Airport (Frank Elliott Field)

Rantoul, Ilinojus, Jungtinės Amerikos Valstijos

platuma: 40-17-37N, ilguma: 088-08-33W, Aukštis: 225 m

Dabartinis oras

Ataskaita buvo paskelbta 15 minutes, ne 07:55 UTC
Vėjas 6 kt iš Šiaurės/Šiaurės Rytų
Temperatūra 11°C
Drėgmė 87%
Slėgis 1022 hPa
Matomumas: 16.1 km
Giedras dangus

METAR: KTIP 180755Z AUTO 03006KT 10SM CLR 11/09 A3018 RMK AO2 T01110087

Laikas: 03:10 (08:10 UTC)


TAF: trūkstamas

Orai ataskaitas ir orų prognozės (METAR, TAF).

turimą stotys yra geltonos ir raudonos taškus žemėlapyje.

Perkelti pele per norėdami pamatyti stoties vardą.

Tada spustelėkite, norėdami matyti oro stebėjimo ir prognozės.

Norėdami pakeisti žemėlapį: spustelėkite ant žalios mygtukų su juodo kryžiaus žemyn,; žalią mygtuką su brūkšneliu, jei norite nutolinti; arba žalių rodyklių gretimoms žemėlapius.


METAR-TAF: